Terminal Aerodrome Forecast
Issued by NWS Albuquerque, NM

Home | Current Version | Previous Version | Text Only | Print | Product List | Glossary On
Versions: 1 2 3 4 5 6 7 8 9 10 11 12 13 14 15
000
FTUS45 KABQ 191735
TAFABQ
TAF
KABQ 191735Z 1918/2018 15018G28KT P6SM SCT150 SCT250
     FM192000 16028G38KT P6SM SCT130
     FM192300 13038G48KT P6SM VCSH BKN100
     FM200500 13030G38KT P6SM SCT060
     FM201100 15012G19KT P6SM FEW250=

USA.gov is the U.S. government's official web portal to all federal, state and local government web resources and services.